createdAt,value
2023-05-14T00:00:33.067Z,95.60
2023-05-14T00:03:05.108Z,95.70
2023-05-14T00:05:37.167Z,95.60
2023-05-14T00:08:09.219Z,95.80
2023-05-14T00:10:41.234Z,95.80
2023-05-14T00:13:13.173Z,95.80
2023-05-14T00:15:45.129Z,96.00
2023-05-14T00:18:17.376Z,96.10
2023-05-14T00:20:51.614Z,96.10
2023-05-14T00:23:24.480Z,96.20
2023-05-14T00:25:56.473Z,96.40
2023-05-14T00:28:28.491Z,96.40
2023-05-14T00:31:00.584Z,96.50
2023-05-14T00:33:33.126Z,96.60
2023-05-14T00:36:05.311Z,96.70
2023-05-14T00:38:37.309Z,96.60
2023-05-14T00:41:09.310Z,96.70
2023-05-14T00:43:41.299Z,96.90
2023-05-14T00:46:14.334Z,97.00
2023-05-14T00:48:46.639Z,97.10
2023-05-14T00:51:19.147Z,97.30
2023-05-14T00:53:52.122Z,97.50
2023-05-14T00:56:24.923Z,97.60
2023-05-14T00:58:56.858Z,97.70
2023-05-14T01:01:28.944Z,97.80
2023-05-14T01:04:01.521Z,97.90
2023-05-14T01:06:54.438Z,97.90
2023-05-14T01:09:29.333Z,98.10
2023-05-14T01:12:06.915Z,98.20
2023-05-14T01:15:06.615Z,98.30
2023-05-14T01:17:53.668Z,98.50
2023-05-14T01:20:27.296Z,98.60
2023-05-14T01:22:59.294Z,98.70
2023-05-14T01:25:32.417Z,98.80
2023-05-14T01:28:20.398Z,98.80
2023-05-14T01:31:00.907Z,99.00
2023-05-14T01:33:36.083Z,99.10
2023-05-14T01:36:08.500Z,99.10
2023-05-14T01:38:45.627Z,99.30
2023-05-14T01:41:19.789Z,99.50
2023-05-14T01:43:52.268Z,99.70
2023-05-14T01:46:25.230Z,99.80
2023-05-14T01:48:57.184Z,99.80
2023-05-14T01:51:29.254Z,99.90
2023-05-14T01:54:01.241Z,99.90
2023-05-14T01:56:33.259Z,99.90
2023-05-14T01:59:05.239Z,99.90
2023-05-14T02:01:37.201Z,99.90
2023-05-14T02:04:09.265Z,99.90
2023-05-14T02:06:41.248Z,99.90
2023-05-14T02:09:13.426Z,99.90
2023-05-14T02:11:45.407Z,99.90
2023-05-14T02:14:17.424Z,99.90
2023-05-14T02:16:51.028Z,99.90
2023-05-14T02:19:23.148Z,99.90
2023-05-14T02:21:55.313Z,99.90
2023-05-14T02:24:27.618Z,99.90
2023-05-14T02:27:01.110Z,99.90
2023-05-14T02:29:33.093Z,99.90
2023-05-14T02:32:05.674Z,99.90
2023-05-14T02:34:38.704Z,99.90
2023-05-14T02:37:10.722Z,99.90
2023-05-14T02:39:42.745Z,99.90
2023-05-14T02:42:14.680Z,99.90
2023-05-14T02:44:46.621Z,99.90
2023-05-14T02:47:19.066Z,99.90
2023-05-14T02:49:51.331Z,99.90
2023-05-14T02:52:23.284Z,99.90
2023-05-14T02:54:55.201Z,99.90
2023-05-14T02:57:27.201Z,99.90
2023-05-14T02:59:59.222Z,99.90
2023-05-14T03:02:31.734Z,99.90
2023-05-14T03:05:04.668Z,99.90
2023-05-14T03:07:36.720Z,99.90
2023-05-14T03:10:09.333Z,99.90
2023-05-14T03:12:41.276Z,99.90
2023-05-14T03:15:13.224Z,99.90
2023-05-14T03:17:45.202Z,99.90
2023-05-14T03:20:17.301Z,99.90
2023-05-14T03:22:49.451Z,99.90
2023-05-14T03:25:21.518Z,99.90
2023-05-14T03:27:53.464Z,99.90
2023-05-14T03:30:26.010Z,99.90
2023-05-14T03:32:59.728Z,99.90
2023-05-14T03:35:31.827Z,99.90
2023-05-14T03:38:03.820Z,99.90
2023-05-14T03:40:35.876Z,99.90
2023-05-14T03:43:07.813Z,99.90
2023-05-14T03:45:40.498Z,99.90
2023-05-14T03:48:12.522Z,99.90
2023-05-14T03:50:44.577Z,99.90
2023-05-14T03:53:17.045Z,99.90
2023-05-14T03:55:49.090Z,99.90
2023-05-14T03:58:21.012Z,99.90
2023-05-14T04:00:53.122Z,99.90
2023-05-14T04:03:25.211Z,99.90
2023-05-14T04:05:57.211Z,99.90
2023-05-14T04:08:29.118Z,99.90
2023-05-14T04:11:01.072Z,99.90
2023-05-14T04:13:32.995Z,99.90
2023-05-14T04:16:05.497Z,99.90
2023-05-14T04:18:37.468Z,99.90
2023-05-14T04:21:09.679Z,99.90
2023-05-14T04:23:41.637Z,99.90
2023-05-14T04:26:13.631Z,99.90
2023-05-14T04:28:45.701Z,99.90
2023-05-14T04:31:17.720Z,99.90
2023-05-14T04:33:49.652Z,99.90
2023-05-14T04:36:21.634Z,99.90
2023-05-14T04:38:53.579Z,99.90
2023-05-14T04:41:25.664Z,99.90
2023-05-14T04:43:58.992Z,99.90
2023-05-14T04:46:31.194Z,99.90
2023-05-14T04:49:03.193Z,99.90
2023-05-14T04:51:35.152Z,99.90
2023-05-14T04:54:07.143Z,99.90
2023-05-14T04:56:39.119Z,99.90
2023-05-14T04:59:11.082Z,99.90
2023-05-14T05:01:43.145Z,99.90
2023-05-14T05:04:15.220Z,99.90
2023-05-14T05:06:47.277Z,99.90
2023-05-14T05:09:19.218Z,99.90
2023-05-14T05:11:51.296Z,99.90
2023-05-14T05:14:23.189Z,99.90
2023-05-14T05:16:55.134Z,99.90
2023-05-14T05:19:39.701Z,99.90
2023-05-14T05:22:16.181Z,99.90
2023-05-14T05:24:49.785Z,99.90
2023-05-14T05:27:22.143Z,99.90
2023-05-14T05:29:54.004Z,99.90
2023-05-14T05:32:26.085Z,99.90
2023-05-14T05:34:58.099Z,99.90
2023-05-14T05:37:31.924Z,99.90
2023-05-14T05:40:05.955Z,99.90
2023-05-14T05:42:37.872Z,99.90
2023-05-14T05:45:10.424Z,99.90
2023-05-14T05:47:42.459Z,99.90
2023-05-14T05:50:15.080Z,99.90
2023-05-14T05:52:47.234Z,99.90
2023-05-14T05:55:19.324Z,99.90
2023-05-14T05:57:51.395Z,99.90
2023-05-14T06:00:24.694Z,99.90
2023-05-14T06:02:57.116Z,99.90
2023-05-14T06:05:29.087Z,99.90
2023-05-14T06:08:01.468Z,99.90
2023-05-14T06:10:34.846Z,99.90
2023-05-14T06:13:06.978Z,99.90
2023-05-14T06:15:39.096Z,99.90
2023-05-14T06:18:11.014Z,99.90
2023-05-14T06:20:43.164Z,99.90
2023-05-14T06:23:15.085Z,99.90
2023-05-14T06:25:48.421Z,99.90
2023-05-14T06:28:22.204Z,99.90
2023-05-14T06:30:54.239Z,99.90
2023-05-14T06:33:30.928Z,99.90
2023-05-14T06:36:06.248Z,99.90
2023-05-14T06:38:38.446Z,99.90
2023-05-14T06:41:10.511Z,99.90
2023-05-14T06:43:42.445Z,99.90
2023-05-14T06:46:14.336Z,99.90
2023-05-14T06:48:46.393Z,99.90
2023-05-14T06:51:18.314Z,99.90
2023-05-14T06:53:50.356Z,99.90
2023-05-14T06:56:22.908Z,99.90
2023-05-14T06:58:54.911Z,99.90
2023-05-14T07:01:26.902Z,99.90
2023-05-14T07:03:58.891Z,99.90
2023-05-14T07:06:30.916Z,99.90
2023-05-14T07:09:03.333Z,99.90
2023-05-14T07:11:35.411Z,99.90
2023-05-14T07:14:07.360Z,99.90
2023-05-14T07:16:40.284Z,99.90
2023-05-14T07:19:12.557Z,99.90
2023-05-14T07:21:44.589Z,99.90
2023-05-14T07:24:16.498Z,99.90
2023-05-14T07:26:48.455Z,99.90
2023-05-14T07:29:20.418Z,99.90
2023-05-14T07:31:52.471Z,99.90
2023-05-14T07:34:24.474Z,99.90
2023-05-14T07:36:56.521Z,99.90
2023-05-14T07:39:28.593Z,99.90
2023-05-14T07:42:01.758Z,99.90
2023-05-14T07:44:33.821Z,99.90
2023-05-14T07:47:07.561Z,99.90
2023-05-14T07:49:39.559Z,99.90
2023-05-14T07:52:11.551Z,99.90
2023-05-14T07:54:43.494Z,99.90
2023-05-14T07:57:15.456Z,99.90
2023-05-14T07:59:48.641Z,99.90
2023-05-14T08:02:20.719Z,99.90
2023-05-14T08:04:53.128Z,99.90
2023-05-14T08:07:25.581Z,99.90
2023-05-14T08:09:57.535Z,99.90
2023-05-14T08:12:29.952Z,99.90
2023-05-14T08:15:02.624Z,99.80
2023-05-14T08:17:34.780Z,99.70
2023-05-14T08:20:07.919Z,99.50
2023-05-14T08:22:39.929Z,99.10
2023-05-14T08:25:12.046Z,98.70
2023-05-14T08:27:44.032Z,98.30
2023-05-14T08:30:16.406Z,97.90
2023-05-14T08:32:48.658Z,97.60
2023-05-14T08:35:20.776Z,97.30
2023-05-14T08:37:52.778Z,96.90
2023-05-14T08:40:25.084Z,96.50
2023-05-14T08:42:58.823Z,96.20
2023-05-14T08:45:34.505Z,95.70
2023-05-14T08:48:11.558Z,95.20
2023-05-14T08:50:44.421Z,94.60
2023-05-14T08:53:16.420Z,94.10
2023-05-14T08:55:51.323Z,93.50
2023-05-14T08:58:26.708Z,93.20
2023-05-14T09:00:58.662Z,92.90
2023-05-14T09:03:31.388Z,92.90
2023-05-14T09:06:06.000Z,92.70
2023-05-14T09:08:38.842Z,92.40
2023-05-14T09:11:10.916Z,92.00
2023-05-14T09:13:43.081Z,91.70
2023-05-14T09:16:17.970Z,91.40
2023-05-14T09:18:51.455Z,91.20
2023-05-14T09:21:23.828Z,90.70
2023-05-14T09:23:58.025Z,90.30
2023-05-14T09:26:35.460Z,90.20
2023-05-14T09:29:07.994Z,89.00
2023-05-14T09:31:40.021Z,88.30
2023-05-14T09:34:12.216Z,88.50
2023-05-14T09:36:44.181Z,88.50
2023-05-14T09:39:17.422Z,87.90
2023-05-14T09:41:49.835Z,87.00
2023-05-14T09:44:23.350Z,87.10
2023-05-14T09:46:56.284Z,86.70
2023-05-14T09:49:28.521Z,86.20
2023-05-14T09:52:03.641Z,85.60
2023-05-14T09:54:37.303Z,84.70
2023-05-14T09:57:09.279Z,84.90
2023-05-14T09:59:41.332Z,85.00
2023-05-14T10:02:23.571Z,84.40
2023-05-14T10:05:00.342Z,83.50
2023-05-14T10:07:46.658Z,83.70
2023-05-14T10:10:27.354Z,83.00
2023-05-14T10:13:05.753Z,82.50
2023-05-14T10:15:52.156Z,81.00
2023-05-14T10:18:26.333Z,80.30
2023-05-14T10:21:06.303Z,79.20
2023-05-14T10:23:39.125Z,78.80
2023-05-14T10:26:11.419Z,79.20
2023-05-14T10:28:44.205Z,78.80
2023-05-14T10:31:16.311Z,77.80
2023-05-14T10:33:50.921Z,77.40
2023-05-14T10:36:23.085Z,77.30
2023-05-14T10:38:58.569Z,76.70
2023-05-14T10:41:30.602Z,76.00
2023-05-14T10:44:10.215Z,75.10
2023-05-14T10:46:42.392Z,74.60
2023-05-14T10:49:14.541Z,75.30
2023-05-14T10:51:49.560Z,75.80
2023-05-14T10:54:23.653Z,75.60
2023-05-14T10:56:59.775Z,74.70
2023-05-14T10:59:34.440Z,74.50
2023-05-14T11:02:20.427Z,74.70
2023-05-14T11:05:06.536Z,75.00
2023-05-14T11:07:44.931Z,75.10
2023-05-14T11:10:20.438Z,75.20
2023-05-14T11:12:52.891Z,74.60
2023-05-14T11:15:27.023Z,73.30
2023-05-14T11:17:59.034Z,72.50
2023-05-14T11:20:32.816Z,72.00
2023-05-14T11:23:04.907Z,71.30
2023-05-14T11:25:37.162Z,71.40
2023-05-14T11:28:09.354Z,70.60
2023-05-14T11:30:41.281Z,70.50
2023-05-14T11:33:13.360Z,69.90
2023-05-14T11:35:46.637Z,69.50
2023-05-14T11:38:21.244Z,68.60
2023-05-14T11:40:58.651Z,68.20
2023-05-14T11:43:30.910Z,68.50
2023-05-14T11:46:02.852Z,68.10
2023-05-14T11:48:35.356Z,67.40
2023-05-14T11:51:07.322Z,67.20
2023-05-14T11:53:39.381Z,66.80
2023-05-14T11:56:11.402Z,67.10
2023-05-14T11:58:56.953Z,67.20
2023-05-14T12:01:30.213Z,66.80
2023-05-14T12:04:04.584Z,66.70
2023-05-14T12:06:38.703Z,66.50
2023-05-14T12:09:12.928Z,66.60
2023-05-14T12:11:46.597Z,66.00
2023-05-14T12:14:24.322Z,65.40
2023-05-14T12:16:56.377Z,64.40
2023-05-14T12:19:30.995Z,63.00
2023-05-14T12:22:03.120Z,62.40
2023-05-14T12:24:35.061Z,61.80
2023-05-14T12:27:09.639Z,61.80
2023-05-14T12:29:43.661Z,61.30
2023-05-14T12:32:16.006Z,60.20
2023-05-14T12:34:48.112Z,59.80
2023-05-14T12:37:20.064Z,59.60
2023-05-14T12:39:52.105Z,59.70
2023-05-14T12:42:24.232Z,59.30
2023-05-14T12:44:56.338Z,58.70
2023-05-14T12:47:28.355Z,57.90
2023-05-14T12:50:00.309Z,57.00
2023-05-14T12:52:38.524Z,56.20
2023-05-14T12:55:11.805Z,55.60
2023-05-14T12:57:43.863Z,55.00
2023-05-14T13:00:16.284Z,54.70
2023-05-14T13:02:48.310Z,53.70
2023-05-14T13:05:20.348Z,52.60
2023-05-14T13:07:53.811Z,53.00
2023-05-14T13:10:25.776Z,52.80
2023-05-14T13:12:58.254Z,52.10
2023-05-14T13:15:31.608Z,51.40
2023-05-14T13:18:04.656Z,50.80
2023-05-14T13:20:36.812Z,51.00
2023-05-14T13:23:08.993Z,51.40
2023-05-14T13:25:41.153Z,51.80
2023-05-14T13:28:13.204Z,52.00
2023-05-14T13:31:08.899Z,52.10
2023-05-14T13:33:43.240Z,51.60
2023-05-14T13:36:16.404Z,52.10
2023-05-14T13:38:48.511Z,52.50
2023-05-14T13:41:21.705Z,51.80
2023-05-14T13:43:53.654Z,50.10
2023-05-14T13:46:25.808Z,49.70
2023-05-14T13:48:57.732Z,49.70
2023-05-14T13:51:29.651Z,49.90
2023-05-14T13:54:01.552Z,50.00
2023-05-14T13:56:33.495Z,49.90
2023-05-14T13:59:05.980Z,49.90
2023-05-14T14:01:38.093Z,50.60
2023-05-14T14:04:10.984Z,51.20
2023-05-14T14:06:42.913Z,51.30
2023-05-14T14:09:14.923Z,52.10
2023-05-14T14:11:47.078Z,52.50
2023-05-14T14:14:19.060Z,52.80
2023-05-14T14:16:50.998Z,53.00
2023-05-14T14:19:23.018Z,53.40
2023-05-14T14:21:55.056Z,53.50
2023-05-14T14:24:27.287Z,53.20
2023-05-14T14:26:59.316Z,53.10
2023-05-14T14:29:31.431Z,53.20
2023-05-14T14:32:04.402Z,52.90
2023-05-14T14:34:36.468Z,53.00
2023-05-14T14:37:08.590Z,53.30
2023-05-14T14:39:40.653Z,53.60
2023-05-14T14:42:12.862Z,54.00
2023-05-14T14:44:44.747Z,54.30
2023-05-14T14:47:16.716Z,54.40
2023-05-14T14:49:48.623Z,54.30
2023-05-14T14:52:21.001Z,54.60
2023-05-14T14:54:53.888Z,54.60
2023-05-14T14:57:26.785Z,54.50
2023-05-14T14:59:59.844Z,54.70
2023-05-14T15:02:33.583Z,54.50
2023-05-14T15:05:06.499Z,54.70
2023-05-14T15:07:38.454Z,55.20
2023-05-14T15:10:10.818Z,55.60
2023-05-14T15:12:42.878Z,55.90
2023-05-14T15:15:14.847Z,56.20
2023-05-14T15:17:46.850Z,56.40
2023-05-14T15:20:18.946Z,56.90
2023-05-14T15:22:54.096Z,57.20
2023-05-14T15:25:27.216Z,57.40
2023-05-14T15:27:59.249Z,57.60
2023-05-14T15:30:31.241Z,57.80
2023-05-14T15:33:03.478Z,58.00
2023-05-14T15:35:36.560Z,58.30
2023-05-14T15:38:09.155Z,58.50
2023-05-14T15:40:41.611Z,59.00
2023-05-14T15:43:13.572Z,59.40
2023-05-14T15:45:46.171Z,59.50
2023-05-14T15:48:18.271Z,59.50
2023-05-14T15:50:50.482Z,59.40
2023-05-14T15:53:22.448Z,59.60
2023-05-14T15:55:54.556Z,59.70
2023-05-14T15:58:26.930Z,59.40
2023-05-14T16:00:58.895Z,59.40
2023-05-14T16:03:30.962Z,59.40
2023-05-14T16:06:03.090Z,59.30
2023-05-14T16:08:35.126Z,59.40
2023-05-14T16:11:07.860Z,59.30
2023-05-14T16:13:41.615Z,58.80
2023-05-14T16:16:13.693Z,58.20
2023-05-14T16:18:45.788Z,57.90
2023-05-14T16:21:17.750Z,57.80
2023-05-14T16:23:49.678Z,57.30
2023-05-14T16:26:22.376Z,56.90
2023-05-14T16:28:54.343Z,56.40
2023-05-14T16:31:26.370Z,56.40
2023-05-14T16:33:59.360Z,56.60
2023-05-14T16:36:31.503Z,56.80
2023-05-14T16:39:07.674Z,57.20
2023-05-14T16:41:41.105Z,57.40
2023-05-14T16:44:13.124Z,57.80
2023-05-14T16:46:45.111Z,58.00
2023-05-14T16:49:17.193Z,58.20
2023-05-14T16:51:49.352Z,58.50
2023-05-14T16:54:21.388Z,58.50
2023-05-14T16:56:53.420Z,58.80
2023-05-14T16:59:25.519Z,59.10
2023-05-14T17:01:57.552Z,59.70
2023-05-14T17:04:29.750Z,60.30
2023-05-14T17:07:02.020Z,60.80
2023-05-14T17:09:34.093Z,60.90
2023-05-14T17:12:06.741Z,61.30
2023-05-14T17:14:38.667Z,61.90
2023-05-14T17:17:10.802Z,61.80
2023-05-14T17:19:42.809Z,61.70
2023-05-14T17:22:14.802Z,62.00
2023-05-14T17:24:46.702Z,62.40
2023-05-14T17:27:18.618Z,63.00
2023-05-14T17:29:53.087Z,64.10
2023-05-14T17:32:25.236Z,65.90
2023-05-14T17:34:57.571Z,68.20
2023-05-14T17:37:29.642Z,70.70
2023-05-14T17:40:01.619Z,72.50
2023-05-14T17:42:33.534Z,74.40
2023-05-14T17:45:06.375Z,75.70
2023-05-14T17:47:38.379Z,76.80
2023-05-14T17:50:11.287Z,77.80
2023-05-14T17:52:44.260Z,78.80
2023-05-14T17:55:17.530Z,79.80
2023-05-14T17:57:49.692Z,80.70
2023-05-14T18:00:21.772Z,81.80
2023-05-14T18:02:53.837Z,83.00
2023-05-14T18:05:26.513Z,83.90
2023-05-14T18:07:58.679Z,85.00
2023-05-14T18:10:30.685Z,85.80
2023-05-14T18:13:02.668Z,86.80
2023-05-14T18:15:36.784Z,87.40
2023-05-14T18:18:09.075Z,88.10
2023-05-14T18:20:41.054Z,88.80
2023-05-14T18:23:13.014Z,89.60
2023-05-14T18:25:45.448Z,90.10
2023-05-14T18:28:18.941Z,90.30
2023-05-14T18:30:51.047Z,90.60
2023-05-14T18:33:23.122Z,90.90
2023-05-14T18:35:55.120Z,91.30
2023-05-14T18:38:27.325Z,91.60
2023-05-14T18:40:59.311Z,92.00
2023-05-14T18:43:31.292Z,92.30
2023-05-14T18:46:03.418Z,92.80
2023-05-14T18:48:35.616Z,93.00
2023-05-14T18:51:07.720Z,93.30
2023-05-14T18:53:39.671Z,93.50
2023-05-14T18:56:11.580Z,93.70
2023-05-14T18:58:43.551Z,94.00
2023-05-14T19:01:15.799Z,94.10
2023-05-14T19:03:47.914Z,94.40
2023-05-14T19:06:20.453Z,94.60
2023-05-14T19:08:52.342Z,94.90
2023-05-14T19:11:24.308Z,95.20
2023-05-14T19:13:56.455Z,95.50
2023-05-14T19:16:28.606Z,95.70
2023-05-14T19:19:00.721Z,95.90
2023-05-14T19:21:32.748Z,96.00
2023-05-14T19:24:05.277Z,96.10
2023-05-14T19:26:37.571Z,96.20
2023-05-14T19:29:09.608Z,96.80
2023-05-14T19:31:41.641Z,96.90
2023-05-14T19:34:13.659Z,97.00
2023-05-14T19:36:45.777Z,97.10
2023-05-14T19:39:17.742Z,97.20
2023-05-14T19:41:49.708Z,97.50
2023-05-14T19:44:21.597Z,97.60
2023-05-14T19:46:53.723Z,97.80
2023-05-14T19:49:25.729Z,98.00
2023-05-14T19:51:57.649Z,98.10
2023-05-14T19:54:29.607Z,98.40
2023-05-14T19:57:01.521Z,98.70
2023-05-14T19:59:34.690Z,98.90
2023-05-14T20:02:07.821Z,99.00
2023-05-14T20:04:40.086Z,99.20
2023-05-14T20:07:15.359Z,99.40
2023-05-14T20:09:47.517Z,99.60
2023-05-14T20:12:19.619Z,99.80
2023-05-14T20:14:51.704Z,99.90
2023-05-14T20:17:24.950Z,99.90
2023-05-14T20:19:57.051Z,99.90
2023-05-14T20:22:28.972Z,99.90
2023-05-14T20:25:00.911Z,99.90
2023-05-14T20:27:32.954Z,99.90
2023-05-14T20:30:06.069Z,99.90
2023-05-14T20:32:38.244Z,99.90
2023-05-14T20:35:10.565Z,99.90
2023-05-14T20:37:42.556Z,99.90
2023-05-14T20:40:14.687Z,99.90
2023-05-14T20:42:46.750Z,99.90
2023-05-14T20:45:18.926Z,99.90
2023-05-14T20:47:50.941Z,99.90
2023-05-14T20:50:23.108Z,99.90
2023-05-14T20:52:55.793Z,99.90
2023-05-14T20:55:28.036Z,99.90
2023-05-14T20:58:00.246Z,99.90
2023-05-14T21:00:32.339Z,99.90
2023-05-14T21:03:04.998Z,99.90
2023-05-14T21:05:37.226Z,99.90
2023-05-14T21:08:09.373Z,99.90
2023-05-14T21:10:41.308Z,99.90
2023-05-14T21:13:13.398Z,99.90
2023-05-14T21:15:45.570Z,99.90
2023-05-14T21:18:17.449Z,99.90
2023-05-14T21:20:49.438Z,99.90
2023-05-14T21:23:21.373Z,99.90
2023-05-14T21:25:54.927Z,99.90
2023-05-14T21:28:26.903Z,99.90
2023-05-14T21:30:58.894Z,99.90
2023-05-14T21:33:30.857Z,99.90
2023-05-14T21:36:03.084Z,99.90
2023-05-14T21:38:35.541Z,99.90
2023-05-14T21:41:07.802Z,99.90
2023-05-14T21:43:40.849Z,99.90
2023-05-14T21:46:12.852Z,99.90
2023-05-14T21:48:44.853Z,99.90
2023-05-14T21:51:17.147Z,99.90
2023-05-14T21:53:49.064Z,99.90
2023-05-14T21:56:22.527Z,99.90
2023-05-14T21:58:56.133Z,99.90
2023-05-14T22:01:28.408Z,99.90
2023-05-14T22:04:00.310Z,99.90
2023-05-14T22:06:32.407Z,99.90
2023-05-14T22:09:04.609Z,99.90
2023-05-14T22:11:36.542Z,99.90
2023-05-14T22:14:09.117Z,99.90
2023-05-14T22:16:41.173Z,99.90
2023-05-14T22:19:13.300Z,99.90
2023-05-14T22:21:45.352Z,99.90
2023-05-14T22:24:17.318Z,99.90
2023-05-14T22:26:49.961Z,99.90
2023-05-14T22:29:21.943Z,99.90
2023-05-14T22:31:53.961Z,99.90
2023-05-14T22:34:26.069Z,99.90
2023-05-14T22:36:58.095Z,99.90
2023-05-14T22:39:30.331Z,99.90
2023-05-14T22:42:02.273Z,99.90
2023-05-14T22:44:36.615Z,99.90
2023-05-14T22:47:08.961Z,99.90
2023-05-14T22:49:41.521Z,99.90
2023-05-14T22:52:13.373Z,99.90
2023-05-14T22:54:46.702Z,99.90
2023-05-14T22:57:18.784Z,99.90
2023-05-14T22:59:50.764Z,99.90
2023-05-14T23:02:22.713Z,99.90
2023-05-14T23:04:54.750Z,99.90
2023-05-14T23:07:26.774Z,99.90
2023-05-14T23:09:58.728Z,99.90
2023-05-14T23:12:30.676Z,99.90
2023-05-14T23:15:02.675Z,99.90
2023-05-14T23:17:34.810Z,99.90
2023-05-14T23:20:10.530Z,99.90
2023-05-14T23:22:42.497Z,99.90
2023-05-14T23:25:14.602Z,99.90
2023-05-14T23:27:46.869Z,99.90
2023-05-14T23:30:18.905Z,99.90
2023-05-14T23:32:50.915Z,99.90
2023-05-14T23:35:23.387Z,99.90
2023-05-14T23:37:55.669Z,99.90
2023-05-14T23:40:27.641Z,99.90
2023-05-14T23:43:02.819Z,99.90
2023-05-14T23:45:34.941Z,99.90
2023-05-14T23:48:07.218Z,99.90
2023-05-14T23:50:39.226Z,99.90
2023-05-14T23:53:11.185Z,99.90
2023-05-14T23:55:43.193Z,99.90
2023-05-14T23:58:15.276Z,99.90
